createdAt,value
2018-08-17T00:00:57.978Z,20.37
2018-08-17T00:03:26.683Z,20.31
2018-08-17T00:05:55.263Z,20.18
2018-08-17T00:08:24.030Z,20.18
2018-08-17T00:10:52.721Z,20.34
2018-08-17T00:13:21.398Z,20.63
2018-08-17T00:15:50.063Z,20.71
2018-08-17T00:18:18.723Z,20.71
2018-08-17T00:20:47.396Z,20.49
2018-08-17T00:23:16.033Z,20.35
2018-08-17T00:25:44.727Z,20.29
2018-08-17T00:28:13.355Z,20.20
2018-08-17T00:30:41.936Z,20.17
2018-08-17T00:33:10.493Z,20.14
2018-08-17T00:35:39.065Z,20.08
2018-08-17T00:38:07.638Z,20.00
2018-08-17T00:40:36.471Z,19.88
2018-08-17T00:43:05.259Z,19.77
2018-08-17T00:45:33.854Z,19.75
2018-08-17T00:48:02.565Z,19.76
2018-08-17T00:50:31.405Z,19.74
2018-08-17T00:53:00.141Z,19.67
2018-08-17T00:55:28.897Z,19.65
2018-08-17T00:57:57.621Z,19.66
2018-08-17T01:00:27.333Z,19.64
2018-08-17T01:02:56.006Z,19.57
2018-08-17T01:05:24.673Z,19.55
2018-08-17T01:07:53.301Z,19.49
2018-08-17T01:10:21.906Z,19.50
2018-08-17T01:12:50.566Z,19.53
2018-08-17T01:15:19.206Z,19.53
2018-08-17T01:17:48.166Z,19.54
2018-08-17T01:20:16.981Z,19.47
2018-08-17T01:22:45.654Z,19.43
2018-08-17T01:25:14.326Z,19.48
2018-08-17T01:27:42.917Z,19.50
2018-08-17T01:30:11.523Z,19.46
2018-08-17T01:32:40.119Z,19.44
2018-08-17T01:35:08.746Z,19.34
2018-08-17T01:37:37.318Z,19.27
2018-08-17T01:40:06.113Z,19.23
2018-08-17T01:42:34.825Z,19.25
2018-08-17T01:45:03.586Z,19.20
2018-08-17T01:47:32.285Z,19.20
2018-08-17T01:50:01.059Z,19.17
2018-08-17T01:52:29.825Z,19.22
2018-08-17T01:54:58.589Z,19.19
2018-08-17T01:57:27.338Z,19.13
2018-08-17T01:59:56.265Z,19.07
2018-08-17T02:02:25.066Z,18.92
2018-08-17T02:04:53.863Z,18.78
2018-08-17T02:07:22.640Z,18.69
2018-08-17T02:09:51.250Z,18.61
2018-08-17T02:12:19.833Z,18.59
2018-08-17T02:14:48.592Z,18.56
2018-08-17T02:17:17.150Z,18.62
2018-08-17T02:19:45.731Z,18.67
2018-08-17T02:22:14.305Z,18.79
2018-08-17T02:24:42.968Z,18.91
2018-08-17T02:27:11.685Z,19.02
2018-08-17T02:29:40.333Z,19.06
2018-08-17T02:32:08.995Z,19.09
2018-08-17T02:34:37.715Z,19.04
2018-08-17T02:37:06.358Z,19.02
2018-08-17T02:39:34.979Z,18.99
2018-08-17T02:42:03.576Z,18.93
2018-08-17T02:44:32.685Z,18.92
2018-08-17T02:47:01.250Z,18.91
2018-08-17T02:49:29.831Z,18.89
2018-08-17T02:51:58.501Z,18.88
2018-08-17T02:54:27.171Z,18.83
2018-08-17T02:56:55.898Z,18.76
2018-08-17T02:59:24.596Z,18.75
2018-08-17T03:01:53.408Z,18.72
2018-08-17T03:04:22.105Z,18.70
2018-08-17T03:06:50.853Z,18.72
2018-08-17T03:09:19.608Z,18.71
2018-08-17T03:11:48.211Z,18.71
2018-08-17T03:14:16.810Z,18.75
2018-08-17T03:16:45.435Z,18.74
2018-08-17T03:19:13.985Z,18.70
2018-08-17T03:21:42.684Z,18.59
2018-08-17T03:24:11.358Z,18.42
2018-08-17T03:26:40.111Z,18.30
2018-08-17T03:29:08.857Z,18.18
2018-08-17T03:31:37.530Z,18.09
2018-08-17T03:34:06.239Z,18.04
2018-08-17T03:36:34.895Z,18.20
2018-08-17T03:39:05.501Z,18.24
2018-08-17T03:41:36.291Z,18.26
2018-08-17T03:44:05.417Z,18.22
2018-08-17T03:46:34.078Z,18.18
2018-08-17T03:49:02.812Z,18.15
2018-08-17T03:51:31.523Z,18.16
2018-08-17T03:54:00.273Z,18.17
2018-08-17T03:56:28.946Z,18.17
2018-08-17T03:58:57.685Z,18.18
2018-08-17T04:01:26.379Z,18.19
2018-08-17T04:03:55.105Z,18.15
2018-08-17T04:06:23.808Z,18.10
2018-08-17T04:08:52.605Z,18.10
2018-08-17T04:11:21.293Z,18.07
2018-08-17T04:13:49.990Z,18.13
2018-08-17T04:16:18.678Z,18.14
2018-08-17T04:18:55.867Z,18.08
2018-08-17T04:21:24.678Z,18.04
2018-08-17T04:23:53.591Z,18.06
2018-08-17T04:26:22.310Z,18.03
2018-08-17T04:28:51.564Z,17.95
2018-08-17T04:31:20.398Z,17.90
2018-08-17T04:33:49.046Z,17.87
2018-08-17T04:36:18.441Z,17.90
2018-08-17T04:38:47.818Z,17.96
2018-08-17T04:41:16.569Z,18.03
2018-08-17T04:43:45.519Z,18.09
2018-08-17T04:46:14.293Z,18.21
2018-08-17T04:48:43.021Z,18.37
2018-08-17T04:51:11.855Z,18.28
2018-08-17T04:53:40.625Z,18.27
2018-08-17T04:56:09.582Z,18.46
2018-08-17T04:58:38.278Z,18.66
2018-08-17T05:01:07.006Z,18.79
2018-08-17T05:03:35.696Z,19.03
2018-08-17T05:06:04.426Z,19.29
2018-08-17T05:08:33.176Z,19.53
2018-08-17T05:11:01.848Z,19.75
2018-08-17T05:13:30.540Z,19.98
2018-08-17T05:15:59.098Z,20.39
2018-08-17T05:18:27.756Z,20.66
2018-08-17T05:20:56.444Z,20.44
2018-08-17T05:23:25.234Z,20.74
2018-08-17T05:25:53.923Z,21.05
2018-08-17T05:28:22.639Z,21.13
2018-08-17T05:30:52.401Z,21.24
2018-08-17T05:33:21.193Z,21.22
2018-08-17T05:35:50.019Z,21.28
2018-08-17T05:38:19.046Z,21.46
2018-08-17T05:40:47.745Z,21.76
2018-08-17T05:43:16.362Z,22.00
2018-08-17T05:45:45.017Z,22.15
2018-08-17T05:48:13.776Z,22.16
2018-08-17T05:50:42.458Z,22.07
2018-08-17T05:53:11.199Z,22.14
2018-08-17T05:55:39.934Z,22.65
2018-08-17T05:58:08.634Z,22.90
2018-08-17T06:00:37.887Z,22.94
2018-08-17T06:03:06.579Z,23.25
2018-08-17T06:05:35.348Z,23.52
2018-08-17T06:08:04.141Z,23.66
2018-08-17T06:10:32.950Z,23.72
2018-08-17T06:13:01.724Z,23.91
2018-08-17T06:15:30.554Z,24.20
2018-08-17T06:17:59.303Z,24.42
2018-08-17T06:20:28.044Z,24.60
2018-08-17T06:22:56.766Z,24.91
2018-08-17T06:25:26.800Z,24.85
2018-08-17T06:27:56.194Z,24.97
2018-08-17T06:30:24.963Z,25.11
2018-08-17T06:32:53.649Z,25.40
2018-08-17T06:35:22.393Z,25.44
2018-08-17T06:37:51.083Z,25.57
2018-08-17T06:40:19.838Z,25.90
2018-08-17T06:42:48.460Z,25.58
2018-08-17T06:45:17.205Z,25.80
2018-08-17T06:47:45.865Z,25.83
2018-08-17T06:50:14.660Z,25.85
2018-08-17T06:52:43.446Z,25.77
2018-08-17T06:55:12.358Z,26.12
2018-08-17T06:57:41.128Z,26.35
2018-08-17T07:00:15.348Z,26.49
2018-08-17T07:02:47.308Z,26.78
2018-08-17T07:05:16.800Z,27.21
2018-08-17T07:07:45.731Z,27.36
2018-08-17T07:10:14.638Z,27.49
2018-08-17T07:12:49.044Z,27.50
2018-08-17T07:15:17.706Z,27.78
2018-08-17T07:17:46.451Z,27.83
2018-08-17T07:20:16.301Z,28.00
2018-08-17T07:22:45.089Z,27.91
2018-08-17T07:25:13.942Z,28.01
2018-08-17T07:27:43.794Z,28.12
2018-08-17T07:30:15.113Z,28.03
2018-08-17T07:32:44.395Z,28.29
2018-08-17T07:35:13.292Z,28.48
2018-08-17T07:37:42.091Z,28.97
2018-08-17T07:40:11.058Z,28.90
2018-08-17T07:42:39.836Z,28.97
2018-08-17T07:45:08.916Z,29.14
2018-08-17T07:47:37.715Z,29.16
2018-08-17T07:50:06.490Z,29.35
2018-08-17T07:52:35.119Z,29.62
2018-08-17T07:55:03.891Z,29.90
2018-08-17T07:57:32.814Z,30.08
2018-08-17T08:00:01.845Z,29.96
2018-08-17T08:02:30.924Z,30.08
2018-08-17T08:04:59.711Z,30.29
2018-08-17T08:07:29.203Z,30.25
2018-08-17T08:09:59.281Z,30.10
2018-08-17T08:12:28.001Z,30.45
2018-08-17T08:14:56.664Z,30.94
2018-08-17T08:17:25.313Z,30.94
2018-08-17T08:20:11.114Z,30.97
2018-08-17T08:22:39.796Z,31.50
2018-08-17T08:25:08.522Z,31.17
2018-08-17T08:27:37.254Z,31.31
2018-08-17T08:30:07.104Z,31.46
2018-08-17T08:32:35.778Z,31.70
2018-08-17T08:35:05.419Z,31.35
2018-08-17T08:37:39.646Z,31.12
2018-08-17T08:40:08.394Z,31.48
2018-08-17T08:42:37.066Z,31.31
2018-08-17T08:45:05.821Z,31.77
2018-08-17T08:47:34.448Z,32.22
2018-08-17T08:50:03.621Z,32.38
2018-08-17T08:52:32.370Z,32.47
2018-08-17T08:55:01.074Z,32.53
2018-08-17T08:57:29.861Z,32.77
2018-08-17T08:59:58.541Z,33.24
2018-08-17T09:02:27.201Z,33.17
2018-08-17T09:04:55.908Z,32.66
2018-08-17T09:07:25.276Z,32.86
2018-08-17T09:09:54.032Z,32.61
2018-08-17T09:12:22.798Z,32.81
2018-08-17T09:14:51.546Z,32.56
2018-08-17T09:17:20.237Z,32.96
2018-08-17T09:19:48.966Z,33.33
2018-08-17T09:22:17.676Z,33.06
2018-08-17T09:24:46.486Z,32.72
2018-08-17T09:27:15.261Z,33.00
2018-08-17T09:29:43.997Z,33.18
2018-08-17T09:32:13.187Z,33.56
2018-08-17T09:34:42.008Z,33.94
2018-08-17T09:37:10.783Z,33.92
2018-08-17T09:39:39.499Z,34.18
2018-08-17T09:42:08.297Z,34.03
2018-08-17T09:44:37.129Z,34.05
2018-08-17T09:47:06.128Z,34.25
2018-08-17T09:49:34.836Z,34.38
2018-08-17T09:52:03.980Z,34.37
2018-08-17T09:54:32.731Z,34.15
2018-08-17T09:57:01.509Z,34.18
2018-08-17T09:59:30.189Z,34.38
2018-08-17T10:02:04.433Z,34.75
2018-08-17T10:04:40.590Z,35.19
2018-08-17T10:07:15.338Z,35.08
2018-08-17T10:09:49.739Z,35.29
2018-08-17T10:12:18.492Z,35.34
2018-08-17T10:14:47.236Z,35.55
2018-08-17T10:17:15.956Z,35.71
2018-08-17T10:19:44.806Z,35.77
2018-08-17T10:22:13.564Z,35.52
2018-08-17T10:24:42.304Z,35.59
2018-08-17T10:27:11.063Z,35.34
2018-08-17T10:29:40.173Z,35.64
2018-08-17T10:32:09.094Z,35.46
2018-08-17T10:34:37.821Z,34.45
2018-08-17T10:37:06.970Z,34.68
2018-08-17T10:39:35.702Z,35.32
2018-08-17T10:42:04.523Z,35.20
2018-08-17T10:44:33.605Z,35.44
2018-08-17T10:47:02.537Z,35.48
2018-08-17T10:49:31.335Z,35.09
2018-08-17T10:52:00.141Z,35.92
2018-08-17T10:54:28.849Z,35.99
2018-08-17T10:56:57.662Z,36.41
2018-08-17T10:59:26.745Z,37.27
2018-08-17T11:01:55.569Z,36.81
2018-08-17T11:04:25.442Z,36.53
2018-08-17T11:06:54.310Z,35.88
2018-08-17T11:09:23.643Z,36.06
2018-08-17T11:11:52.381Z,36.00
2018-08-17T11:14:21.248Z,35.94
2018-08-17T11:16:50.072Z,36.11
2018-08-17T11:19:18.788Z,37.13
2018-08-17T11:21:47.569Z,37.03
2018-08-17T11:24:16.289Z,37.53
2018-08-17T11:26:45.101Z,37.71
2018-08-17T11:29:13.824Z,38.13
2018-08-17T11:31:42.561Z,37.70
2018-08-17T11:34:11.307Z,38.17
2018-08-17T11:36:40.181Z,37.59
2018-08-17T11:39:08.999Z,38.02
2018-08-17T11:41:37.688Z,38.32
2018-08-17T11:44:12.107Z,38.34
2018-08-17T11:46:40.836Z,38.47
2018-08-17T11:49:09.916Z,38.60
2018-08-17T11:51:40.691Z,37.70
2018-08-17T11:54:10.922Z,36.74
2018-08-17T11:56:39.919Z,34.85
2018-08-17T11:59:08.573Z,34.01
2018-08-17T12:01:37.491Z,33.48
2018-08-17T12:04:06.351Z,33.34
2018-08-17T12:06:35.081Z,33.45
2018-08-17T12:09:05.329Z,33.71
2018-08-17T12:11:33.976Z,35.12
2018-08-17T12:14:02.686Z,35.99
2018-08-17T12:16:36.931Z,36.62
2018-08-17T12:19:06.870Z,36.34
2018-08-17T12:21:35.817Z,35.84
2018-08-17T12:24:04.897Z,35.31
2018-08-17T12:26:38.450Z,35.02
2018-08-17T12:29:07.174Z,34.87
2018-08-17T12:31:35.904Z,34.72
2018-08-17T12:34:04.661Z,34.74
2018-08-17T12:36:33.476Z,34.52
2018-08-17T12:39:02.781Z,34.20
2018-08-17T12:41:37.466Z,34.01
2018-08-17T12:44:06.295Z,33.92
2018-08-17T12:46:35.670Z,33.74
2018-08-17T12:49:04.314Z,34.19
2018-08-17T12:51:33.449Z,34.01
2018-08-17T12:54:02.873Z,33.95
2018-08-17T12:56:31.753Z,33.93
2018-08-17T12:59:00.988Z,33.56
2018-08-17T13:01:30.981Z,33.75
2018-08-17T13:04:05.267Z,33.54
2018-08-17T13:06:34.906Z,33.90
2018-08-17T13:09:09.342Z,33.62
2018-08-17T13:11:46.039Z,33.58
2018-08-17T13:14:15.506Z,34.43
2018-08-17T13:16:44.760Z,34.37
2018-08-17T13:19:13.592Z,34.40
2018-08-17T13:21:42.687Z,35.08
2018-08-17T13:24:11.605Z,36.01
2018-08-17T13:26:40.344Z,37.63
2018-08-17T13:29:09.205Z,38.41
2018-08-17T13:31:38.123Z,38.11
2018-08-17T13:34:07.551Z,38.27
2018-08-17T13:36:36.467Z,38.36
2018-08-17T13:39:09.732Z,38.47
2018-08-17T13:41:44.409Z,38.01
2018-08-17T13:44:13.161Z,38.61
2018-08-17T13:46:42.006Z,39.18
2018-08-17T13:49:12.035Z,38.61
2018-08-17T13:51:40.798Z,37.29
2018-08-17T13:54:10.367Z,36.30
2018-08-17T13:56:39.046Z,35.63
2018-08-17T13:59:08.055Z,34.76
2018-08-17T14:01:37.151Z,34.24
2018-08-17T14:04:06.115Z,33.96
2018-08-17T14:06:35.086Z,33.67
2018-08-17T14:09:05.686Z,33.24
2018-08-17T14:11:34.643Z,32.92
2018-08-17T14:14:03.612Z,32.20
2018-08-17T14:16:32.621Z,31.23
2018-08-17T14:19:01.627Z,30.55
2018-08-17T14:21:30.837Z,30.02
2018-08-17T14:24:00.514Z,29.54
2018-08-17T14:26:29.806Z,29.44
2018-08-17T14:28:58.776Z,29.25
2018-08-17T14:31:27.251Z,29.22
2018-08-17T14:33:55.706Z,29.13
2018-08-17T14:36:24.173Z,29.14
2018-08-17T14:38:52.696Z,29.42
2018-08-17T14:41:21.202Z,30.98
2018-08-17T14:43:49.766Z,32.03
2018-08-17T14:46:18.734Z,31.99
2018-08-17T14:48:47.409Z,31.50
2018-08-17T14:51:16.069Z,31.81
2018-08-17T14:53:44.692Z,32.22
2018-08-17T14:56:13.222Z,32.37
2018-08-17T14:58:41.798Z,32.56
2018-08-17T15:01:10.435Z,32.14
2018-08-17T15:03:39.006Z,32.20
2018-08-17T15:06:07.564Z,32.72
2018-08-17T15:08:36.211Z,33.21
2018-08-17T15:11:05.172Z,33.03
2018-08-17T15:13:34.389Z,32.90
2018-08-17T15:16:02.900Z,33.26
2018-08-17T15:18:31.542Z,32.42
2018-08-17T15:21:00.138Z,31.51
2018-08-17T15:23:28.619Z,31.15
2018-08-17T15:25:57.055Z,30.57
2018-08-17T15:28:30.982Z,30.07
2018-08-17T15:30:59.450Z,29.45
2018-08-17T15:33:27.927Z,29.05
2018-08-17T15:35:56.413Z,28.98
2018-08-17T15:38:24.825Z,28.95
2018-08-17T15:40:53.405Z,28.94
2018-08-17T15:43:22.004Z,28.84
2018-08-17T15:45:50.658Z,28.71
2018-08-17T15:48:19.368Z,28.68
2018-08-17T15:50:47.978Z,28.58
2018-08-17T15:53:16.518Z,28.55
2018-08-17T15:55:45.033Z,28.51
2018-08-17T15:58:13.544Z,28.38
2018-08-17T16:00:42.091Z,28.42
2018-08-17T16:03:10.989Z,28.40
2018-08-17T16:08:33.986Z,28.21
2018-08-17T16:11:02.568Z,28.20
2018-08-17T16:13:31.055Z,28.16
2018-08-17T16:15:59.523Z,28.36
2018-08-17T16:18:28.097Z,29.16
2018-08-17T16:20:56.638Z,29.55
2018-08-17T16:23:25.236Z,29.38
2018-08-17T16:25:53.804Z,29.56
2018-08-17T16:28:22.421Z,28.90
2018-08-17T16:30:51.110Z,28.62
2018-08-17T16:33:19.770Z,28.30
2018-08-17T16:35:48.638Z,28.12
2018-08-17T16:38:17.190Z,28.01
2018-08-17T16:40:51.778Z,27.86
2018-08-17T16:43:26.160Z,27.90
2018-08-17T16:45:54.838Z,27.91
2018-08-17T16:48:23.379Z,27.90
2018-08-17T16:50:51.911Z,27.81
2018-08-17T16:53:20.779Z,27.93
2018-08-17T16:55:49.268Z,28.00
2018-08-17T16:58:24.593Z,27.95
2018-08-17T17:00:53.118Z,27.88
2018-08-17T17:03:21.618Z,27.94
2018-08-17T17:05:55.567Z,27.82
2018-08-17T17:08:24.441Z,27.78
2018-08-17T17:10:52.941Z,27.74
2018-08-17T17:13:21.511Z,27.70
2018-08-17T17:15:50.162Z,27.68
2018-08-17T17:18:18.829Z,27.62
2018-08-17T17:20:47.555Z,27.58
2018-08-17T17:23:17.198Z,27.58
2018-08-17T17:25:46.511Z,27.55
2018-08-17T17:28:16.151Z,27.56
2018-08-17T17:30:50.272Z,27.52
2018-08-17T17:33:19.183Z,27.48
2018-08-17T17:35:47.886Z,27.51
2018-08-17T17:38:16.548Z,27.47
2018-08-17T17:40:45.034Z,27.36
2018-08-17T17:43:13.636Z,27.56
2018-08-17T17:45:43.764Z,27.47
2018-08-17T17:48:12.312Z,27.51
2018-08-17T17:50:40.796Z,27.60
2018-08-17T17:53:09.306Z,27.60
2018-08-17T17:55:44.240Z,27.46
2018-08-17T17:58:15.851Z,27.42
2018-08-17T18:00:57.267Z,27.50
2018-08-17T18:03:29.234Z,27.33
2018-08-17T18:06:04.015Z,27.28
2018-08-17T18:08:32.808Z,27.21
2018-08-17T18:11:01.480Z,27.03
2018-08-17T18:13:30.331Z,26.78
2018-08-17T18:15:58.968Z,26.75
2018-08-17T18:18:27.553Z,26.45
2018-08-17T18:20:56.150Z,26.20
2018-08-17T18:23:24.682Z,25.99
2018-08-17T18:25:53.343Z,25.82
2018-08-17T18:28:21.905Z,25.78
2018-08-17T18:30:50.404Z,25.71
2018-08-17T18:33:18.896Z,25.66
2018-08-17T18:35:47.379Z,25.61
2018-08-17T18:38:15.876Z,25.47
2018-08-17T18:40:44.345Z,25.32
2018-08-17T18:43:12.776Z,25.15
2018-08-17T18:45:41.358Z,25.01
2018-08-17T18:48:09.879Z,24.89
2018-08-17T18:50:38.448Z,24.80
2018-08-17T18:53:07.028Z,24.83
2018-08-17T18:55:35.579Z,24.77
2018-08-17T18:58:04.601Z,24.69
2018-08-17T19:00:33.076Z,24.72
2018-08-17T19:03:01.944Z,24.72
2018-08-17T19:05:30.380Z,24.78
2018-08-17T19:07:59.011Z,24.69
2018-08-17T19:10:27.635Z,24.63
2018-08-17T19:12:56.530Z,24.56
2018-08-17T19:15:25.028Z,24.48
2018-08-17T19:17:53.674Z,24.42
2018-08-17T19:20:22.281Z,24.35
2018-08-17T19:22:50.798Z,24.27
2018-08-17T19:25:20.306Z,24.16
2018-08-17T19:27:48.786Z,24.03
2018-08-17T19:30:24.943Z,23.82
2018-08-17T19:32:56.724Z,23.59
2018-08-17T19:35:25.198Z,23.42
2018-08-17T19:37:53.743Z,23.36
2018-08-17T19:40:22.574Z,23.35
2018-08-17T19:42:51.036Z,23.33
2018-08-17T19:45:20.083Z,23.32
2018-08-17T19:47:48.739Z,23.31
2018-08-17T19:50:17.304Z,23.28
2018-08-17T19:52:45.810Z,23.26
2018-08-17T19:55:15.576Z,23.24
2018-08-17T19:57:45.069Z,23.17
2018-08-17T20:00:13.993Z,23.11
2018-08-17T20:02:43.136Z,23.15
2018-08-17T20:05:12.192Z,23.13
2018-08-17T20:07:40.783Z,23.03
2018-08-17T20:10:10.700Z,22.94
2018-08-17T20:12:39.307Z,22.92
2018-08-17T20:15:08.223Z,22.91
2018-08-17T20:17:37.214Z,22.88
2018-08-17T20:20:08.339Z,22.85
2018-08-17T20:22:36.849Z,22.77
2018-08-17T20:25:15.908Z,22.77
2018-08-17T20:27:45.184Z,22.84
2018-08-17T20:30:19.281Z,22.80
2018-08-17T20:32:48.681Z,22.82
2018-08-17T20:35:17.146Z,22.84
2018-08-17T20:37:48.854Z,22.81
2018-08-17T20:40:17.853Z,22.78
2018-08-17T20:42:47.552Z,22.77
2018-08-17T20:45:16.190Z,22.79
2018-08-17T20:47:44.901Z,22.82
2018-08-17T20:50:16.548Z,22.95
2018-08-17T20:53:02.469Z,23.09
2018-08-17T20:55:31.294Z,23.18
2018-08-17T20:58:00.258Z,23.38
2018-08-17T21:00:29.382Z,23.50
2018-08-17T21:02:57.876Z,23.42
2018-08-17T21:05:27.199Z,23.39
2018-08-17T21:07:56.461Z,23.34
2018-08-17T21:10:25.126Z,23.26
2018-08-17T21:12:53.751Z,23.14
2018-08-17T21:15:22.321Z,23.05
2018-08-17T21:17:51.114Z,23.26
2018-08-17T21:20:19.627Z,23.14
2018-08-17T21:22:49.155Z,23.02
2018-08-17T21:25:17.760Z,22.95
2018-08-17T21:27:46.245Z,23.07
2018-08-17T21:30:14.769Z,23.11
2018-08-17T21:32:44.755Z,23.05
2018-08-17T21:35:13.228Z,23.47
2018-08-17T21:37:41.825Z,23.39
2018-08-17T21:40:16.983Z,23.26
2018-08-17T21:42:46.239Z,23.29
2018-08-17T21:45:14.849Z,23.45
2018-08-17T21:47:43.428Z,23.42
2018-08-17T21:50:14.997Z,23.42
2018-08-17T21:52:44.234Z,23.45
2018-08-17T21:55:12.870Z,23.55
2018-08-17T21:57:41.397Z,23.57
2018-08-17T22:00:17.796Z,23.58
2018-08-17T22:02:46.298Z,23.59
2018-08-17T22:05:20.147Z,23.44
2018-08-17T22:07:49.376Z,23.11
2018-08-17T22:10:18.807Z,22.89
2018-08-17T22:12:47.449Z,22.72
2018-08-17T22:15:17.355Z,22.53
2018-08-17T22:17:45.953Z,22.19
2018-08-17T22:20:14.445Z,21.94
2018-08-17T22:22:42.940Z,21.91
2018-08-17T22:25:13.055Z,21.72
2018-08-17T22:27:41.690Z,21.53
2018-08-17T22:30:16.991Z,21.52
2018-08-17T22:32:45.418Z,21.80
2018-08-17T22:35:14.047Z,21.71
2018-08-17T22:37:43.833Z,21.63
2018-08-17T22:40:12.558Z,21.67
2018-08-17T22:42:41.122Z,21.61
2018-08-17T22:45:09.759Z,21.62
2018-08-17T22:47:38.317Z,21.54
2018-08-17T22:50:06.943Z,21.64
2018-08-17T22:52:35.530Z,21.52
2018-08-17T22:55:07.670Z,21.43
2018-08-17T22:57:36.637Z,21.40
2018-08-17T23:00:17.466Z,21.31
2018-08-17T23:02:46.930Z,21.26
2018-08-17T23:05:18.386Z,21.23
2018-08-17T23:07:47.037Z,21.24
2018-08-17T23:10:20.128Z,21.23
2018-08-17T23:12:49.817Z,21.23
2018-08-17T23:15:18.387Z,21.22
2018-08-17T23:17:51.348Z,21.29
2018-08-17T23:20:25.406Z,21.24
2018-08-17T23:22:55.210Z,21.22
2018-08-17T23:25:23.705Z,21.31
2018-08-17T23:27:52.295Z,21.27
2018-08-17T23:30:20.746Z,21.24
2018-08-17T23:32:49.346Z,21.24
2018-08-17T23:35:17.856Z,21.22
2018-08-17T23:37:46.710Z,21.41
2018-08-17T23:40:15.173Z,21.32
2018-08-17T23:42:43.758Z,21.36
2018-08-17T23:45:13.841Z,21.41
2018-08-17T23:47:42.363Z,21.21
2018-08-17T23:50:12.260Z,21.16
2018-08-17T23:52:41.226Z,21.19
2018-08-17T23:55:12.080Z,21.19
2018-08-17T23:57:40.563Z,21.08
